createdAt,value
2023-02-06T00:00:53.840Z,8.00
2023-02-06T00:03:20.761Z,8.73
2023-02-06T00:05:58.062Z,9.32
2023-02-06T00:08:26.270Z,9.85
2023-02-06T00:10:53.343Z,8.25
2023-02-06T00:13:20.548Z,9.98
2023-02-06T00:15:47.625Z,9.73
2023-02-06T00:18:14.582Z,7.65
2023-02-06T00:20:41.443Z,8.63
2023-02-06T00:23:08.273Z,9.23
2023-02-06T00:25:35.412Z,7.55
2023-02-06T00:28:02.546Z,9.57
2023-02-06T00:30:29.557Z,8.50
2023-02-06T00:32:56.454Z,8.88
2023-02-06T00:35:23.263Z,7.60
2023-02-06T00:37:51.046Z,8.27
2023-02-06T00:40:18.927Z,8.73
2023-02-06T00:42:45.848Z,8.07
2023-02-06T00:45:13.146Z,8.40
2023-02-06T00:47:41.137Z,8.20
2023-02-06T00:50:09.892Z,7.57
2023-02-06T00:52:36.792Z,7.80
2023-02-06T00:55:05.116Z,8.00
2023-02-06T00:57:31.969Z,7.85
2023-02-06T00:59:58.813Z,8.73
2023-02-06T01:02:26.906Z,9.50
2023-02-06T01:04:53.756Z,8.23
2023-02-06T01:07:20.660Z,7.55
2023-02-06T01:09:47.539Z,9.25
2023-02-06T01:12:14.409Z,9.13
2023-02-06T01:14:41.183Z,7.25
2023-02-06T01:17:10.709Z,9.85
2023-02-06T01:19:39.250Z,8.63
2023-02-06T01:22:06.936Z,7.95
2023-02-06T01:24:34.854Z,8.52
2023-02-06T01:27:01.807Z,9.10
2023-02-06T01:29:28.581Z,7.93
2023-02-06T01:31:56.142Z,7.03
2023-02-06T01:34:22.996Z,8.38
2023-02-06T01:36:49.896Z,8.75
2023-02-06T01:39:16.851Z,7.22
2023-02-06T01:41:43.687Z,7.15
2023-02-06T01:44:24.768Z,8.38
2023-02-06T01:46:54.373Z,7.53
2023-02-06T01:49:25.500Z,8.68
2023-02-06T01:51:56.325Z,8.60
2023-02-06T01:54:24.051Z,7.38
2023-02-06T01:56:56.526Z,7.38
2023-02-06T01:59:24.967Z,7.88
2023-02-06T02:01:52.196Z,9.23
2023-02-06T02:04:24.489Z,7.68
2023-02-06T02:07:04.466Z,7.28
2023-02-06T02:09:32.102Z,8.15
2023-02-06T02:11:58.966Z,7.30
2023-02-06T02:14:25.955Z,7.45
2023-02-06T02:17:15.427Z,8.25
2023-02-06T02:19:54.446Z,7.55
2023-02-06T02:22:50.604Z,8.52
2023-02-06T02:25:42.387Z,8.75
2023-02-06T02:28:30.969Z,6.75
2023-02-06T02:30:57.867Z,7.60
2023-02-06T02:33:36.815Z,7.72
2023-02-06T02:36:26.299Z,7.50
2023-02-06T02:38:59.893Z,7.18
2023-02-06T02:41:57.089Z,8.18
2023-02-06T02:44:48.801Z,7.55
2023-02-06T02:47:19.618Z,7.88
2023-02-06T02:49:47.403Z,8.10
2023-02-06T02:52:15.029Z,6.85
2023-02-06T02:54:41.858Z,8.13
2023-02-06T02:57:14.820Z,7.82
2023-02-06T02:59:46.506Z,7.13
2023-02-06T03:02:21.563Z,8.45
2023-02-06T03:04:56.573Z,7.60
2023-02-06T03:07:37.941Z,7.20
2023-02-06T03:10:27.974Z,8.07
2023-02-06T03:27:47.154Z,8.27
2023-02-06T03:30:16.674Z,8.23
2023-02-06T03:32:49.558Z,7.45
2023-02-06T03:35:29.349Z,6.72
2023-02-06T03:37:56.487Z,7.88
2023-02-06T03:40:24.654Z,7.82
2023-02-06T03:42:56.355Z,7.07
2023-02-06T03:45:28.524Z,8.48
2023-02-06T03:47:58.834Z,7.90
2023-02-06T03:50:28.472Z,7.05
2023-02-06T03:52:58.234Z,7.72
2023-02-06T03:55:25.709Z,7.70
2023-02-06T03:58:00.579Z,7.10
2023-02-06T04:00:30.908Z,8.27
2023-02-06T04:02:59.468Z,6.95
2023-02-06T04:05:26.758Z,6.57
2023-02-06T04:07:56.559Z,6.75
2023-02-06T04:10:26.199Z,7.13
2023-02-06T04:12:53.671Z,7.15
2023-02-06T04:15:20.731Z,7.20
2023-02-06T04:17:59.435Z,6.80
2023-02-06T04:20:27.374Z,7.68
2023-02-06T04:22:54.439Z,7.18
2023-02-06T04:25:21.505Z,7.78
2023-02-06T04:27:48.559Z,7.90
2023-02-06T04:30:15.791Z,7.97
2023-02-06T04:32:42.721Z,6.15
2023-02-06T04:35:10.049Z,7.93
2023-02-06T04:37:37.755Z,6.93
2023-02-06T04:40:05.630Z,6.85
2023-02-06T04:42:32.653Z,7.60
2023-02-06T04:44:59.533Z,8.27
2023-02-06T04:47:26.385Z,7.43
2023-02-06T04:49:53.325Z,6.45
2023-02-06T04:52:20.373Z,7.85
2023-02-06T04:54:47.387Z,8.80
2023-02-06T04:57:14.302Z,6.32
2023-02-06T04:59:41.192Z,7.93
2023-02-06T05:02:08.066Z,8.32
2023-02-06T05:04:35.059Z,8.95
2023-02-06T05:07:03.071Z,6.50
2023-02-06T05:09:31.404Z,8.30
2023-02-06T05:11:58.342Z,8.30
2023-02-06T05:14:25.205Z,7.90
2023-02-06T05:16:52.122Z,7.47
2023-02-06T05:19:18.956Z,8.57
2023-02-06T05:21:45.830Z,7.95
2023-02-06T05:24:12.988Z,6.50
2023-02-06T05:26:39.906Z,8.70
2023-02-06T05:29:07.006Z,9.18
2023-02-06T05:31:33.917Z,7.93
2023-02-06T05:34:00.852Z,8.63
2023-02-06T05:36:29.318Z,9.52
2023-02-06T05:38:56.259Z,9.07
2023-02-06T05:41:23.159Z,7.85
2023-02-06T05:43:50.322Z,8.35
2023-02-06T05:46:17.282Z,8.07
2023-02-06T05:48:44.137Z,8.43
2023-02-06T05:51:11.087Z,7.18
2023-02-06T05:53:38.036Z,9.90
2023-02-06T05:56:05.457Z,7.03
2023-02-06T05:58:32.480Z,8.30
2023-02-06T06:00:59.532Z,8.20
2023-02-06T06:03:26.501Z,8.18
2023-02-06T06:05:54.415Z,7.35
2023-02-06T06:08:22.194Z,9.00
2023-02-06T06:10:52.695Z,8.98
2023-02-06T06:13:19.699Z,8.25
2023-02-06T06:15:50.926Z,7.55
2023-02-06T06:18:19.067Z,8.63
2023-02-06T06:20:46.356Z,9.38
2023-02-06T06:23:13.374Z,9.20
2023-02-06T06:25:40.159Z,8.75
2023-02-06T06:28:07.289Z,8.48
2023-02-06T06:30:35.680Z,8.70
2023-02-06T06:33:02.718Z,8.80
2023-02-06T06:35:29.774Z,9.32
2023-02-06T06:37:56.832Z,9.48
2023-02-06T06:40:23.760Z,9.82
2023-02-06T06:42:50.731Z,10.18
2023-02-06T06:45:17.741Z,8.65
2023-02-06T06:47:44.713Z,9.23
2023-02-06T06:50:11.637Z,8.77
2023-02-06T06:52:38.543Z,9.52
2023-02-06T06:55:05.664Z,10.40
2023-02-06T06:57:32.629Z,9.10
2023-02-06T06:59:59.532Z,9.57
2023-02-06T07:02:28.689Z,10.48
2023-02-06T07:04:56.039Z,10.10
2023-02-06T07:07:23.009Z,9.88
2023-02-06T07:09:49.888Z,9.13
2023-02-06T07:12:16.719Z,9.77
2023-02-06T07:14:43.603Z,8.23
2023-02-06T07:17:10.520Z,8.50
2023-02-06T07:19:37.505Z,9.05
2023-02-06T07:22:04.517Z,8.77
2023-02-06T07:24:31.373Z,10.05
2023-02-06T07:26:58.247Z,8.68
2023-02-06T07:29:25.372Z,9.63
2023-02-06T07:31:52.346Z,7.43
2023-02-06T07:34:19.274Z,8.35
2023-02-06T07:36:46.715Z,8.90
2023-02-06T07:39:13.579Z,8.20
2023-02-06T07:41:40.495Z,9.13
2023-02-06T07:44:07.429Z,7.65
2023-02-06T07:46:34.822Z,8.65
2023-02-06T07:49:01.851Z,8.95
2023-02-06T07:51:29.159Z,14.30
2023-02-06T07:53:56.132Z,7.43
2023-02-06T07:56:25.804Z,8.93
2023-02-06T07:58:54.210Z,9.93
2023-02-06T08:01:22.892Z,11.43
2023-02-06T08:03:51.700Z,9.75
2023-02-06T08:06:19.763Z,10.25
2023-02-06T08:08:46.924Z,10.30
2023-02-06T08:11:16.590Z,11.50
2023-02-06T08:13:46.523Z,12.05
2023-02-06T08:16:18.690Z,12.75
2023-02-06T08:18:46.142Z,12.57
2023-02-06T08:21:18.762Z,12.18
2023-02-06T08:23:45.674Z,11.57
2023-02-06T08:26:17.878Z,14.00
2023-02-06T08:28:47.313Z,11.48
2023-02-06T08:31:20.022Z,12.05
2023-02-06T08:33:47.098Z,11.93
2023-02-06T08:36:15.118Z,11.80
2023-02-06T08:38:41.986Z,12.95
2023-02-06T08:41:37.189Z,14.13
2023-02-06T08:46:33.055Z,12.73
2023-02-06T08:49:05.255Z,13.05
2023-02-06T08:51:34.227Z,14.27
2023-02-06T08:54:04.035Z,15.48
2023-02-06T08:56:32.789Z,13.13
2023-02-06T08:59:00.162Z,14.52
2023-02-06T09:01:29.033Z,13.60
2023-02-06T09:03:57.972Z,14.57
2023-02-06T09:06:25.715Z,13.50
2023-02-06T09:08:53.547Z,13.40
2023-02-06T09:11:22.541Z,15.40
2023-02-06T09:13:49.901Z,13.82
2023-02-06T09:16:19.798Z,12.20
2023-02-06T09:18:47.928Z,13.10
2023-02-06T09:21:17.803Z,12.45
2023-02-06T09:23:49.878Z,14.80
2023-02-06T09:26:20.478Z,12.88
2023-02-06T09:28:47.758Z,13.10
2023-02-06T09:31:14.852Z,14.05
2023-02-06T09:33:41.703Z,13.50
2023-02-06T09:36:14.671Z,14.02
2023-02-06T09:38:44.438Z,12.43
2023-02-06T09:41:26.461Z,11.77
2023-02-06T09:44:06.700Z,12.43
2023-02-06T09:46:37.125Z,12.68
2023-02-06T09:49:12.699Z,12.60
2023-02-06T09:52:12.774Z,11.98
2023-02-06T09:55:00.761Z,12.75
2023-02-06T09:58:01.381Z,14.23
2023-02-06T10:00:49.877Z,10.18
2023-02-06T10:03:35.146Z,13.05
2023-02-06T10:06:25.437Z,12.45
2023-02-06T10:09:03.509Z,12.45
2023-02-06T10:11:57.146Z,12.40
2023-02-06T10:14:45.216Z,12.70
2023-02-06T10:17:25.322Z,12.50
2023-02-06T10:20:03.511Z,12.57
2023-02-06T10:22:40.298Z,12.38
2023-02-06T10:25:38.084Z,12.75
2023-02-06T10:28:26.573Z,13.30
2023-02-06T10:31:15.104Z,12.55
2023-02-06T10:34:02.166Z,12.55
2023-02-06T10:36:41.469Z,12.50
2023-02-06T10:39:28.533Z,12.13
2023-02-06T10:42:06.148Z,12.75
2023-02-06T10:45:06.510Z,14.27
2023-02-06T10:47:49.483Z,14.90
2023-02-06T10:50:19.557Z,12.23
2023-02-06T10:52:46.946Z,12.05
2023-02-06T10:55:24.845Z,13.63
2023-02-06T10:58:16.429Z,12.35
2023-02-06T11:00:46.162Z,13.10
2023-02-06T11:03:20.925Z,14.45
2023-02-06T11:05:48.347Z,13.13
2023-02-06T11:08:32.662Z,13.38
2023-02-06T11:11:18.265Z,13.48
2023-02-06T11:13:48.622Z,14.35
2023-02-06T11:16:22.159Z,12.75
2023-02-06T11:18:50.389Z,12.97
2023-02-06T11:21:46.057Z,15.15
2023-02-06T11:24:15.667Z,15.20
2023-02-06T11:26:46.793Z,15.68
2023-02-06T11:29:29.969Z,14.18
2023-02-06T11:32:00.562Z,13.32
2023-02-06T11:34:33.555Z,14.48
2023-02-06T11:37:02.097Z,13.73
2023-02-06T11:39:37.932Z,13.88
2023-02-06T11:42:22.800Z,13.15
2023-02-06T11:47:37.585Z,13.48
2023-02-06T11:50:13.773Z,12.98
2023-02-06T11:52:44.252Z,13.43
2023-02-06T11:55:23.457Z,12.35
2023-02-06T11:58:14.540Z,13.93
2023-02-06T12:01:05.861Z,12.75
2023-02-06T12:03:35.163Z,13.10
2023-02-06T12:06:14.046Z,11.73
2023-02-06T12:08:54.252Z,12.25
2023-02-06T12:11:26.451Z,13.20
2023-02-06T12:14:02.660Z,11.75
2023-02-06T12:16:30.349Z,12.57
2023-02-06T12:18:59.912Z,11.60
2023-02-06T12:21:56.188Z,13.88
2023-02-06T12:24:37.629Z,12.48
2023-02-06T12:27:17.078Z,11.98
2023-02-06T12:29:51.450Z,12.82
2023-02-06T12:32:23.319Z,13.77
2023-02-06T12:35:00.556Z,12.50
2023-02-06T12:37:42.566Z,11.57
2023-02-06T12:41:06.782Z,13.13
2023-02-06T12:43:35.823Z,11.60
2023-02-06T12:46:09.132Z,12.55
2023-02-06T12:48:54.931Z,10.35
2023-02-06T12:51:45.230Z,11.55
2023-02-06T12:54:20.224Z,9.73
2023-02-06T12:56:49.228Z,12.27
2023-02-06T12:59:57.516Z,11.05
2023-02-06T13:02:41.928Z,10.43
2023-02-06T13:05:22.232Z,11.55
2023-02-06T13:07:50.921Z,10.55
2023-02-06T13:10:25.050Z,11.35
2023-02-06T13:12:57.008Z,11.25
2023-02-06T13:15:27.262Z,10.55
2023-02-06T13:17:55.815Z,11.20
2023-02-06T13:20:25.776Z,11.50
2023-02-06T13:22:52.845Z,11.60
2023-02-06T13:25:25.947Z,11.88
2023-02-06T13:27:54.553Z,10.95
2023-02-06T13:30:24.024Z,10.73
2023-02-06T13:32:51.355Z,12.23
2023-02-06T13:35:22.616Z,13.05
2023-02-06T13:37:51.698Z,11.60
2023-02-06T13:40:30.842Z,14.63
2023-02-06T13:43:03.805Z,10.57
2023-02-06T13:45:36.761Z,11.60
2023-02-06T13:48:10.205Z,10.35
2023-02-06T13:51:16.872Z,11.00
2023-02-06T13:54:08.246Z,10.98
2023-02-06T13:57:00.022Z,11.25
2023-02-06T13:59:34.868Z,11.15
2023-02-06T14:02:10.789Z,11.90
2023-02-06T14:04:38.268Z,11.70
2023-02-06T14:07:23.266Z,11.57
2023-02-06T14:09:53.145Z,11.23
2023-02-06T14:12:55.765Z,9.80
2023-02-06T14:15:33.111Z,11.25
2023-02-06T14:18:38.454Z,10.50
2023-02-06T14:21:17.359Z,11.70
2023-02-06T14:23:59.160Z,10.50
2023-02-06T14:26:29.108Z,11.27
2023-02-06T14:29:19.293Z,10.90
2023-02-06T14:32:25.769Z,9.73
2023-02-06T14:35:19.688Z,11.30
2023-02-06T14:38:18.621Z,11.60
2023-02-06T14:40:51.750Z,12.07
2023-02-06T14:43:23.205Z,12.35
2023-02-06T14:46:07.113Z,11.88
2023-02-06T14:48:41.228Z,10.88
2023-02-06T14:51:17.985Z,11.27
2023-02-06T14:54:01.755Z,9.88
2023-02-06T14:56:37.518Z,9.27
2023-02-06T14:59:13.590Z,8.65
2023-02-06T15:01:42.087Z,8.52
2023-02-06T15:04:15.284Z,10.48
2023-02-06T15:07:09.808Z,10.70
2023-02-06T15:09:40.443Z,10.45
2023-02-06T15:12:24.747Z,9.70
2023-02-06T15:29:50.216Z,9.77
2023-02-06T15:32:32.600Z,11.40
2023-02-06T15:35:01.169Z,9.50
2023-02-06T15:37:29.496Z,10.00
2023-02-06T15:40:19.649Z,10.88
2023-02-06T15:42:50.603Z,9.90
2023-02-06T15:45:26.417Z,12.82
2023-02-06T15:47:55.071Z,12.40
2023-02-06T15:50:28.478Z,10.07
2023-02-06T15:52:56.401Z,8.63
2023-02-06T15:55:31.457Z,9.77
2023-02-06T15:58:00.605Z,10.02
2023-02-06T16:00:32.920Z,8.48
2023-02-06T16:03:04.838Z,10.07
2023-02-06T16:05:38.419Z,10.57
2023-02-06T16:08:10.917Z,10.47
2023-02-06T16:10:39.849Z,10.75
2023-02-06T16:13:14.954Z,10.75
2023-02-06T16:16:03.283Z,10.07
2023-02-06T16:18:32.827Z,9.68
2023-02-06T16:21:21.049Z,10.55
2023-02-06T16:24:06.882Z,10.07
2023-02-06T16:26:52.240Z,12.02
2023-02-06T16:29:31.970Z,10.18
2023-02-06T16:32:23.417Z,11.55
2023-02-06T16:34:50.651Z,10.98
2023-02-06T16:37:23.286Z,9.38
2023-02-06T16:39:50.437Z,9.88
2023-02-06T16:42:27.120Z,10.07
2023-02-06T16:44:59.587Z,9.73
2023-02-06T16:47:26.870Z,10.98
2023-02-06T16:49:53.888Z,10.65
2023-02-06T16:52:23.972Z,10.77
2023-02-06T16:54:51.081Z,9.23
2023-02-06T16:57:45.533Z,10.68
2023-02-06T17:00:22.062Z,8.18
2023-02-06T17:02:52.063Z,9.13
2023-02-06T17:05:21.337Z,11.10
2023-02-06T17:07:51.127Z,9.20
2023-02-06T17:10:21.475Z,10.00
2023-02-06T17:12:49.243Z,9.38
2023-02-06T17:15:18.465Z,11.43
2023-02-06T17:17:46.132Z,9.88
2023-02-06T17:20:29.116Z,10.13
2023-02-06T17:22:55.941Z,10.65
2023-02-06T17:25:22.841Z,11.35
2023-02-06T17:27:50.259Z,10.27
2023-02-06T17:30:19.785Z,8.77
2023-02-06T17:32:47.181Z,11.27
2023-02-06T17:35:14.364Z,9.10
2023-02-06T17:37:41.257Z,9.77
2023-02-06T17:40:09.713Z,10.20
2023-02-06T17:42:36.576Z,9.82
2023-02-06T17:45:03.749Z,13.45
2023-02-06T17:47:31.025Z,10.35
2023-02-06T17:49:58.003Z,11.00
2023-02-06T17:52:24.884Z,9.10
2023-02-06T17:54:51.883Z,10.00
2023-02-06T17:57:18.773Z,11.10
2023-02-06T17:59:45.631Z,10.23
2023-02-06T18:02:14.710Z,8.00
2023-02-06T18:04:41.544Z,9.30
2023-02-06T18:07:08.453Z,9.05
2023-02-06T18:09:35.456Z,8.52
2023-02-06T18:12:02.437Z,9.25
2023-02-06T18:14:29.294Z,9.88
2023-02-06T18:16:56.083Z,9.75
2023-02-06T18:19:24.950Z,9.13
2023-02-06T18:21:51.832Z,10.52
2023-02-06T18:24:18.737Z,8.68
2023-02-06T18:26:46.955Z,9.18
2023-02-06T18:29:13.823Z,9.23
2023-02-06T18:31:40.732Z,8.48
2023-02-06T18:34:08.397Z,8.82
2023-02-06T18:36:36.640Z,9.18
2023-02-06T18:39:05.360Z,8.27
2023-02-06T18:41:50.678Z,9.65
2023-02-06T18:44:17.572Z,8.63
2023-02-06T18:46:44.685Z,8.68
2023-02-06T18:49:11.545Z,8.20
2023-02-06T18:51:38.872Z,7.88
2023-02-06T18:54:07.873Z,7.85
2023-02-06T18:56:35.011Z,9.77
2023-02-06T18:59:05.658Z,8.40
2023-02-06T19:01:33.192Z,7.90
2023-02-06T19:04:00.143Z,8.77
2023-02-06T19:06:32.163Z,8.68
2023-02-06T19:08:59.595Z,9.10
2023-02-06T19:11:27.102Z,8.20
2023-02-06T19:13:54.871Z,7.20
2023-02-06T19:16:22.174Z,8.38
2023-02-06T19:18:49.671Z,8.38
2023-02-06T19:21:19.442Z,8.85
2023-02-06T19:23:52.606Z,8.07
2023-02-06T19:26:19.775Z,7.88
2023-02-06T19:28:47.174Z,8.60
2023-02-06T19:31:15.434Z,8.07
2023-02-06T19:33:42.513Z,8.30
2023-02-06T19:36:12.530Z,8.43
2023-02-06T19:38:40.407Z,8.73
2023-02-06T19:41:14.087Z,8.10
2023-02-06T19:43:41.738Z,7.90
2023-02-06T19:46:12.248Z,6.88
2023-02-06T19:48:42.516Z,7.70
2023-02-06T19:51:21.879Z,7.80
2023-02-06T19:53:50.471Z,6.93
2023-02-06T19:56:23.917Z,6.95
2023-02-06T19:59:23.906Z,8.27
2023-02-06T20:01:56.557Z,9.40
2023-02-06T20:04:26.643Z,7.72
2023-02-06T20:06:55.742Z,6.65
2023-02-06T20:09:23.853Z,7.82
2023-02-06T20:11:51.313Z,9.13
2023-02-06T20:14:19.233Z,7.55
2023-02-06T20:16:47.044Z,8.98
2023-02-06T20:19:18.661Z,7.40
2023-02-06T20:21:48.406Z,7.90
2023-02-06T20:24:18.682Z,8.30
2023-02-06T20:26:45.764Z,9.10
2023-02-06T20:29:22.415Z,7.97
2023-02-06T20:31:50.354Z,8.48
2023-02-06T20:34:18.539Z,8.30
2023-02-06T20:36:46.403Z,8.13
2023-02-06T20:39:14.572Z,8.43
2023-02-06T20:41:42.415Z,8.95
2023-02-06T20:44:10.630Z,7.88
2023-02-06T20:46:37.713Z,7.72
2023-02-06T20:49:09.272Z,7.95
2023-02-06T20:51:36.905Z,9.10
2023-02-06T20:54:04.073Z,7.18
2023-02-06T20:56:31.360Z,8.75
2023-02-06T20:59:01.345Z,9.02
2023-02-06T21:01:31.693Z,7.85
2023-02-06T21:04:03.197Z,7.82
2023-02-06T21:06:31.388Z,8.07
2023-02-06T21:09:00.336Z,9.13
2023-02-06T21:11:30.251Z,8.80
2023-02-06T21:13:59.066Z,9.40
2023-02-06T21:16:27.280Z,9.35
2023-02-06T21:18:55.207Z,7.93
2023-02-06T21:21:22.147Z,8.20
2023-02-06T21:23:49.616Z,8.32
2023-02-06T21:26:18.331Z,8.07
2023-02-06T21:28:48.750Z,9.27
2023-02-06T21:31:21.566Z,8.80
2023-02-06T21:33:49.957Z,8.98
2023-02-06T21:36:17.105Z,9.43
2023-02-06T21:38:44.686Z,8.15
2023-02-06T21:41:17.332Z,9.27
2023-02-06T21:43:45.505Z,8.40
2023-02-06T21:46:13.350Z,10.25
2023-02-06T21:48:41.238Z,8.85
2023-02-06T21:51:14.058Z,9.02
2023-02-06T21:53:42.457Z,9.93
2023-02-06T21:56:14.145Z,9.00
2023-02-06T21:58:41.197Z,10.27
2023-02-06T22:01:13.175Z,9.07
2023-02-06T22:03:40.169Z,9.77
2023-02-06T22:06:11.867Z,9.85
2023-02-06T22:08:42.696Z,9.93
2023-02-06T22:11:30.135Z,9.02
2023-02-06T22:13:59.331Z,9.07
2023-02-06T22:16:26.662Z,9.82
2023-02-06T22:18:53.701Z,8.75
2023-02-06T22:21:23.975Z,8.95
2023-02-06T22:23:51.870Z,9.75
2023-02-06T22:26:21.185Z,9.02
2023-02-06T22:28:48.371Z,10.60
2023-02-06T22:31:28.417Z,9.43
2023-02-06T22:33:55.689Z,9.52
2023-02-06T22:36:25.464Z,9.20
2023-02-06T22:38:58.458Z,9.30
2023-02-06T22:41:25.772Z,9.57
2023-02-06T22:43:52.870Z,9.07
2023-02-06T22:46:19.786Z,11.85
2023-02-06T22:48:47.266Z,7.70
2023-02-06T22:51:14.234Z,8.55
2023-02-06T22:53:41.655Z,8.65
2023-02-06T22:56:31.421Z,8.73
2023-02-06T22:59:12.909Z,9.70
2023-02-06T23:01:54.937Z,8.35
2023-02-06T23:04:28.311Z,8.45
2023-02-06T23:06:56.177Z,9.15
2023-02-06T23:09:26.905Z,9.13
2023-02-06T23:11:54.661Z,9.25
2023-02-06T23:14:21.710Z,7.95
2023-02-06T23:16:48.823Z,9.50
2023-02-06T23:19:17.562Z,10.18
2023-02-06T23:21:46.241Z,8.95
2023-02-06T23:24:14.301Z,8.73
2023-02-06T23:26:43.805Z,9.50
2023-02-06T23:29:15.793Z,8.82
2023-02-06T23:31:43.284Z,9.48
2023-02-06T23:34:10.827Z,8.77
2023-02-06T23:36:37.959Z,9.63
2023-02-06T23:39:05.695Z,8.90
2023-02-06T23:41:33.168Z,10.15
2023-02-06T23:44:02.775Z,9.32
2023-02-06T23:46:31.899Z,9.77
2023-02-06T23:48:59.437Z,8.35
2023-02-06T23:51:26.828Z,9.02
2023-02-06T23:53:54.048Z,8.55
2023-02-06T23:56:24.496Z,8.55
2023-02-06T23:58:52.692Z,8.57
